Time;durP1;ratioP1;P1;durP2;ratioP2;P2;SDS_P1;SDS_P2;PMS_P1;PMS_P2;Temp;Humidity;BMP_temperature;BMP_pressure;BME280_temperature;BME280_humidity;BME280_pressure;Samples;Min_cycle;Max_cycle;Signal;HPM_P1;HPM_P2
2022/12/13 00:00:17;;;;;;;153.68;73.00;;;-4.30;99.90;;;;;;4991756;28;20501;-74
2022/12/13 00:02:44;;;;;;;129.17;68.63;;;-4.30;99.90;;;;;;4991080;28;20049;-74
2022/12/13 00:05:11;;;;;;;129.37;68.70;;;-4.40;99.90;;;;;;4990668;28;20077;-74
2022/12/13 00:07:37;;;;;;;127.60;67.07;;;-4.40;99.90;;;;;;5007396;28;20057;-74
2022/12/13 00:10:04;;;;;;;136.30;64.63;;;-4.30;99.90;;;;;;4991754;28;20052;-74
2022/12/13 00:12:30;;;;;;;135.67;69.03;;;-4.40;99.90;;;;;;4991762;28;20042;-74
2022/12/13 00:14:56;;;;;;;130.23;67.87;;;-4.40;99.90;;;;;;4991047;28;20053;-74
2022/12/13 00:17:22;;;;;;;131.00;66.43;;;-4.50;99.90;;;;;;4991721;28;20037;-74
2022/12/13 00:19:48;;;;;;;124.43;70.07;;;-4.50;99.90;;;;;;4991614;28;20061;-74
2022/12/13 00:22:15;;;;;;;132.53;69.57;;;-4.50;99.90;;;;;;4992013;28;20489;-74
2022/12/13 00:24:41;;;;;;;143.93;70.93;;;-4.50;99.90;;;;;;4991341;28;20066;-74
2022/12/13 00:27:08;;;;;;;131.00;68.53;;;-4.50;99.90;;;;;;4991641;28;20073;-74
2022/12/13 00:29:33;;;;;;;141.90;69.63;;;-4.50;99.90;;;;;;4991280;28;20053;-74
2022/12/13 00:31:59;;;;;;;135.77;66.53;;;-4.60;99.90;;;;;;4991410;28;20042;-74
2022/12/13 00:34:25;;;;;;;141.67;70.03;;;-4.60;99.90;;;;;;4991184;28;20038;-74
2022/12/13 00:36:53;;;;;;;149.67;70.67;;;-4.60;99.90;;;;;;4974414;28;20053;-74
2022/12/13 00:39:19;;;;;;;127.35;68.32;;;-4.60;99.90;;;;;;4984783;28;20670;-74
2022/12/13 00:41:45;;;;;;;150.93;73.27;;;-4.50;99.90;;;;;;4989075;28;20141;-74
2022/12/13 00:44:12;;;;;;;136.53;74.73;;;-4.50;99.90;;;;;;4986513;28;20050;-74
2022/12/13 00:46:39;;;;;;;128.17;70.90;;;-4.50;99.90;;;;;;4988100;28;20551;-74
2022/12/13 00:49:05;;;;;;;139.23;71.33;;;-4.50;99.90;;;;;;4988414;28;20121;-74
2022/12/13 00:51:32;;;;;;;15.37;11.80;;;-4.50;99.90;;;;;;4992215;28;20133;-74
2022/12/13 00:54:00;;;;;;;132.18;67.90;;;-4.60;99.90;;;;;;4990516;28;20579;-74
2022/12/13 00:56:27;;;;;;;124.17;70.93;;;-4.60;99.90;;;;;;4990875;28;20054;-74
2022/12/13 00:58:54;;;;;;;137.60;68.33;;;-4.60;99.90;;;;;;4988451;28;20641;-74
2022/12/13 01:01:25;;;;;;;135.00;73.13;;;-4.60;99.90;;;;;;4989723;28;20108;-74
2022/12/13 01:03:56;;;;;;;143.33;70.73;;;-4.60;99.90;;;;;;5003608;28;20053;-74
2022/12/13 01:06:40;;;;;;;141.00;71.17;;;-4.60;99.90;;;;;;4990597;28;20054;-74
2022/12/13 01:09:18;;;;;;;132.50;71.37;;;-4.50;99.90;;;;;;4989125;28;20076;-74
2022/12/13 01:11:45;;;;;;;131.73;69.45;;;-4.50;99.90;;;;;;4991018;28;20045;-74
2022/12/13 01:14:11;;;;;;;139.50;70.70;;;-4.50;99.90;;;;;;4991063;28;20048;-75
2022/12/13 01:16:37;;;;;;;149.30;74.60;;;-4.50;99.90;;;;;;4989702;28;20046;-74
2022/12/13 01:19:03;;;;;;;154.93;74.00;;;-4.50;99.90;;;;;;4990093;28;20153;-74
2022/12/13 01:21:29;;;;;;;149.37;72.27;;;-4.50;99.90;;;;;;4988840;28;20046;-74
2022/12/13 01:24:03;;;;;;;133.83;69.87;;;-4.50;99.90;;;;;;4990343;28;20030;-74
2022/12/13 01:26:29;;;;;;;144.73;72.20;;;-4.50;99.90;;;;;;4990344;28;20446;-74
2022/12/13 01:28:55;;;;;;;133.70;70.13;;;-4.50;99.90;;;;;;4990917;28;20458;-74
2022/12/13 01:31:20;;;;;;;134.93;70.23;;;-4.50;99.90;;;;;;4990025;28;20074;-74
2022/12/13 01:33:47;;;;;;;153.70;72.80;;;-4.50;99.90;;;;;;4989619;28;20043;-74
2022/12/13 01:36:15;;;;;;;154.30;72.73;;;-4.60;99.90;;;;;;4988364;28;20217;-74
2022/12/13 01:38:41;;;;;;;140.02;72.25;;;-4.60;99.90;;;;;;5004515;28;20050;-74
2022/12/13 01:41:09;;;;;;;134.03;72.93;;;-4.50;99.90;;;;;;4990420;28;20049;-74
2022/12/13 01:43:40;;;;;;;137.70;67.97;;;-4.60;99.90;;;;;;4990418;28;20111;-73
2022/12/13 01:46:07;;;;;;;138.20;67.90;;;-4.60;99.90;;;;;;4990383;28;20042;-74
2022/12/13 01:48:45;;;;;;;141.13;68.90;;;-4.60;99.90;;;;;;4989909;28;20360;-74
2022/12/13 01:51:14;;;;;;;136.50;70.75;;;-4.60;99.90;;;;;;4989450;28;20050;-74
2022/12/13 01:53:42;;;;;;;133.83;71.63;;;-4.70;99.90;;;;;;4988750;28;20112;-74
2022/12/13 01:56:16;;;;;;;125.05;67.75;;;-4.70;99.90;;;;;;5006665;28;20050;-74
2022/12/13 01:58:43;;;;;;;143.00;67.77;;;-4.70;99.90;;;;;;5006045;28;20148;-74
2022/12/13 02:01:09;;;;;;;124.53;68.13;;;-4.70;99.90;;;;;;4989506;28;20050;-74
2022/12/13 02:03:35;;;;;;;135.20;68.07;;;-4.70;99.90;;;;;;4987540;28;20089;-74
2022/12/13 02:06:09;;;;;;;137.10;70.93;;;-4.80;99.90;;;;;;4988853;28;20053;-74
2022/12/13 02:08:37;;;;;;;145.17;70.87;;;-4.70;99.90;;;;;;4989604;28;20076;-74
2022/12/13 02:11:04;;;;;;;129.77;69.85;;;-4.70;99.90;;;;;;4988209;28;20042;-74
2022/12/13 02:13:29;;;;;;;139.27;67.87;;;-4.80;99.90;;;;;;4988320;28;20479;-74
2022/12/13 02:16:15;;;;;;;132.17;68.43;;;-4.80;99.90;;;;;;4989543;28;20084;-74
2022/12/13 02:18:49;;;;;;;23.73;10.27;;;-4.80;99.90;;;;;;4989162;28;20046;-74
2022/12/13 02:21:33;;;;;;;126.70;63.63;;;-4.80;99.90;;;;;;5004161;28;20089;-74
2022/12/13 02:24:27;;;;;;;142.10;64.53;;;-4.90;99.90;;;;;;4986737;28;20057;-74
2022/12/13 02:27:01;;;;;;;20.70;11.63;;;-4.90;99.90;;;;;;4984189;28;20403;-74
2022/12/13 02:29:45;;;;;;;124.47;66.70;;;-5.00;99.90;;;;;;4988329;28;20148;-74
2022/12/13 02:32:31;;;;;;;124.97;67.13;;;-5.00;99.90;;;;;;4987714;28;20042;-75
2022/12/13 02:35:29;;;;;;;20.10;13.57;;;-4.90;99.90;;;;;;4988081;28;20458;-74
2022/12/13 02:38:17;;;;;;;133.23;67.63;;;-5.00;99.90;;;;;;4948814;28;20109;-74
2022/12/13 02:41:03;;;;;;;134.40;69.75;;;-5.00;99.90;;;;;;5004242;28;20050;-74
2022/12/13 02:43:36;;;;;;;142.37;70.23;;;-5.00;99.90;;;;;;4988359;28;20064;-74
2022/12/13 02:46:03;;;;;;;21.60;12.13;;;-4.90;99.90;;;;;;5005464;28;20522;-74
2022/12/13 02:48:33;;;;;;;130.90;68.20;;;-5.00;99.90;;;;;;4992004;28;20049;-74
2022/12/13 02:51:01;;;;;;;134.77;66.97;;;-5.00;99.90;;;;;;5005950;28;20132;-74
2022/12/13 02:53:28;;;;;;;120.65;65.20;;;-5.00;99.90;;;;;;4989118;28;20046;-74
2022/12/13 02:55:54;;;;;;;22.43;15.80;;;-5.00;99.90;;;;;;4988712;28;20050;-74
2022/12/13 02:58:27;;;;;;;63.40;31.27;;;-5.00;99.90;;;;;;4989867;28;20049;-74
2022/12/13 03:01:04;;;;;;;133.73;67.97;;;-5.10;99.90;;;;;;5009913;28;20054;-74
2022/12/13 03:03:33;;;;;;;139.80;72.27;;;-5.00;99.90;;;;;;5009606;28;20050;-74
2022/12/13 03:06:29;;;;;;;132.97;70.50;;;-5.00;99.90;;;;;;5008846;28;20060;-74
2022/12/13 03:09:32;;;;;;;35.20;15.70;;;-5.00;99.90;;;;;;4994357;28;20058;-74
2022/12/13 03:15:10;;;;;;;133.73;70.87;;;-5.10;99.90;;;;;;5011553;28;20061;-74
2022/12/13 03:17:44;;;;;;;141.57;72.37;;;-5.10;99.90;;;;;;4993997;28;20757;-74
2022/12/13 03:20:15;;;;;;;36.43;16.30;;;-5.10;99.90;;;;;;4978618;28;20124;-74
2022/12/13 03:22:41;;;;;;;37.00;12.27;;;-5.10;99.90;;;;;;4993245;28;20406;-73
2022/12/13 03:25:07;;;;;;;132.83;72.67;;;-5.10;99.90;;;;;;4992685;28;20045;-74
2022/12/13 03:27:32;;;;;;;159.50;73.10;;;-5.10;99.90;;;;;;4994901;28;20052;-74
2022/12/13 03:29:59;;;;;;;127.70;67.03;;;-5.10;99.90;;;;;;4995651;28;20902;-74
2022/12/13 03:32:24;;;;;;;128.13;67.90;;;-5.10;99.90;;;;;;4993326;28;20092;-74
2022/12/13 03:34:50;;;;;;;133.50;69.23;;;-5.10;99.90;;;;;;4994794;28;20049;-74
2022/12/13 03:37:16;;;;;;;127.37;69.20;;;-5.20;99.90;;;;;;4995535;28;20045;-74
2022/12/13 03:39:41;;;;;;;140.90;67.53;;;-5.20;99.90;;;;;;4995135;28;20859;-74
2022/12/13 03:42:07;;;;;;;122.83;64.97;;;-5.20;99.90;;;;;;4996428;28;20056;-74
2022/12/13 03:44:33;;;;;;;113.97;63.53;;;-5.20;99.90;;;;;;4995481;28;20046;-74
2022/12/13 03:46:59;;;;;;;121.53;65.50;;;-5.30;99.90;;;;;;4995371;28;20056;-74
2022/12/13 03:49:25;;;;;;;126.90;66.60;;;-5.30;99.90;;;;;;4993490;28;20048;-74
2022/12/13 03:51:52;;;;;;;128.90;67.03;;;-5.30;99.90;;;;;;4994133;28;20081;-73
2022/12/13 03:54:17;;;;;;;30.27;12.93;;;-5.30;99.90;;;;;;4992702;28;20099;-73
2022/12/13 03:56:43;;;;;;;27.43;13.97;;;-5.30;99.90;;;;;;4994685;28;20507;-73
2022/12/13 03:59:08;;;;;;;48.27;19.67;;;-5.30;99.90;;;;;;4993841;28;20132;-74
2022/12/13 04:01:34;;;;;;;129.00;68.83;;;-5.30;99.90;;;;;;4995013;28;20034;-74
2022/12/13 04:04:00;;;;;;;125.03;66.90;;;-5.40;99.90;;;;;;4995286;28;20046;-74
2022/12/13 04:06:25;;;;;;;39.17;16.70;;;-5.30;99.90;;;;;;4993257;28;20107;-73
2022/12/13 04:08:51;;;;;;;134.70;70.03;;;-5.30;99.90;;;;;;4996082;28;20089;-73
2022/12/13 04:14:02;;;;;;;121.67;67.83;;;-5.30;99.90;;;;;;4992221;28;20045;-74
2022/12/13 04:16:28;;;;;;;130.43;69.13;;;-5.30;99.90;;;;;;4992639;28;20042;-74
2022/12/13 04:18:54;;;;;;;128.53;70.63;;;-5.30;99.90;;;;;;4991999;28;20053;-73
2022/12/13 04:21:19;;;;;;;128.60;67.83;;;-5.40;99.90;;;;;;4992435;28;20121;-73
2022/12/13 04:23:46;;;;;;;134.53;66.07;;;-5.40;99.90;;;;;;4990591;28;20080;-73
2022/12/13 04:26:12;;;;;;;123.07;66.37;;;-5.40;99.90;;;;;;4990708;28;20046;-74
2022/12/13 04:28:37;;;;;;;141.03;67.77;;;-5.40;99.90;;;;;;4991619;28;20049;-73
2022/12/13 04:31:03;;;;;;;124.00;67.87;;;-5.40;99.90;;;;;;4992010;28;20045;-73
2022/12/13 04:33:31;;;;;;;117.97;68.57;;;-5.40;99.90;;;;;;4991686;28;20602;-73
2022/12/13 04:35:57;;;;;;;42.90;19.63;;;-5.40;99.90;;;;;;4987300;28;20438;-74
2022/12/13 04:38:23;;;;;;;16.77;10.63;;;-5.40;99.90;;;;;;4990759;28;20483;-73
2022/12/13 04:40:49;;;;;;;28.70;14.33;;;-5.40;99.90;;;;;;4990774;28;20042;-73
2022/12/13 04:43:15;;;;;;;115.77;63.83;;;-5.40;99.90;;;;;;5006291;28;20087;-74
2022/12/13 04:45:41;;;;;;;26.17;13.17;;;-5.50;99.90;;;;;;5002462;28;20046;-74
2022/12/13 04:48:07;;;;;;;122.43;64.60;;;-5.50;99.90;;;;;;4993828;28;20038;-73
2022/12/13 04:50:32;;;;;;;125.77;63.97;;;-5.50;99.90;;;;;;4990748;28;20045;-73
2022/12/13 04:52:58;;;;;;;112.57;54.73;;;-5.50;99.90;;;;;;4990277;28;20057;-73
2022/12/13 04:55:24;;;;;;;112.63;63.67;;;-5.50;99.90;;;;;;4991386;28;20054;-73
2022/12/13 04:57:50;;;;;;;125.87;66.93;;;-5.50;99.90;;;;;;4989871;28;20060;-73
2022/12/13 05:00:16;;;;;;;129.57;70.40;;;-5.50;99.90;;;;;;4990588;28;20087;-73
2022/12/13 05:02:41;;;;;;;34.10;18.03;;;-5.50;99.90;;;;;;4990882;28;20057;-73
2022/12/13 05:05:08;;;;;;;116.87;61.93;;;-5.60;99.90;;;;;;4990592;28;20121;-73
2022/12/13 05:07:35;;;;;;;21.27;10.70;;;-5.60;99.90;;;;;;5006145;28;20041;-73
2022/12/13 05:10:00;;;;;;;135.30;67.37;;;-5.60;99.90;;;;;;4990588;28;20068;-73
2022/12/13 05:12:26;;;;;;;131.80;67.33;;;-5.60;99.90;;;;;;4989483;28;20046;-73
2022/12/13 05:14:52;;;;;;;135.67;67.87;;;-5.60;99.90;;;;;;4990715;28;20057;-73
2022/12/13 05:17:18;;;;;;;123.87;65.63;;;-5.60;99.90;;;;;;4989929;28;20052;-73
2022/12/13 05:19:44;;;;;;;138.70;68.17;;;-5.60;99.90;;;;;;4990766;28;20050;-73
2022/12/13 05:22:15;;;;;;;61.10;30.60;;;-5.60;99.90;;;;;;4986483;28;20045;-74
2022/12/13 05:24:43;;;;;;;136.30;69.87;;;-5.60;99.90;;;;;;4989032;28;20054;-73
2022/12/13 05:27:10;;;;;;;28.33;9.75;;;-5.60;99.90;;;;;;4990390;28;20487;-74
2022/12/13 05:29:36;;;;;;;108.70;61.93;;;-5.60;99.90;;;;;;4987695;28;20050;-74
2022/12/13 05:32:02;;;;;;;126.83;64.80;;;-5.70;99.90;;;;;;4988353;28;20045;-72
2022/12/13 05:34:28;;;;;;;142.60;69.30;;;-5.70;99.90;;;;;;4990247;28;20048;-72
2022/12/13 05:36:54;;;;;;;151.87;71.27;;;-5.70;99.90;;;;;;4990230;28;20089;-72
2022/12/13 05:39:20;;;;;;;165.37;75.40;;;-5.70;99.90;;;;;;4989242;28;20453;-73
2022/12/13 05:41:45;;;;;;;148.23;77.27;;;-5.80;99.90;;;;;;4990217;28;20460;-73
2022/12/13 05:44:12;;;;;;;140.40;75.63;;;-5.80;99.90;;;;;;4987266;28;20045;-72
2022/12/13 05:46:38;;;;;;;12.63;9.53;;;-5.80;99.90;;;;;;4987946;28;20045;-72
2022/12/13 05:49:03;;;;;;;149.17;72.47;;;-5.80;99.90;;;;;;4973000;28;20053;-73
2022/12/13 05:51:29;;;;;;;129.93;68.67;;;-5.80;99.90;;;;;;4986762;28;20038;-72
2022/12/13 05:53:54;;;;;;;126.93;65.17;;;-5.80;99.90;;;;;;5004038;28;20057;-72
2022/12/13 05:56:20;;;;;;;140.77;70.70;;;-5.80;99.90;;;;;;5000472;28;20474;-74
2022/12/13 05:58:46;;;;;;;157.37;75.97;;;-5.80;99.90;;;;;;4995161;28;20046;-74
2022/12/13 06:01:13;;;;;;;168.90;76.23;;;-5.80;99.90;;;;;;4988676;28;20531;-74
2022/12/13 06:03:40;;;;;;;166.00;80.10;;;-5.80;99.90;;;;;;4989499;28;20054;-72
2022/12/13 06:06:07;;;;;;;154.77;78.57;;;-5.80;99.90;;;;;;5005383;28;20284;-72
2022/12/13 06:08:33;;;;;;;167.07;83.83;;;-5.80;99.90;;;;;;5005606;28;20491;-73
2022/12/13 06:11:03;;;;;;;185.30;88.67;;;-5.90;99.90;;;;;;5006958;28;20033;-73
2022/12/13 06:13:29;;;;;;;45.33;17.80;;;-5.90;99.90;;;;;;5007311;28;20053;-73
2022/12/13 06:16:03;;;;;;;28.80;12.10;;;-6.00;99.90;;;;;;4988087;28;20088;-73
2022/12/13 06:18:33;;;;;;;64.50;28.20;;;-6.10;99.90;;;;;;4986980;28;20049;-73
2022/12/13 06:21:02;;;;;;;173.33;82.70;;;-6.10;99.90;;;;;;5005859;28;20058;-73
2022/12/13 06:23:30;;;;;;;163.07;83.35;;;-6.00;99.90;;;;;;4988607;28;20049;-73
2022/12/13 06:25:55;;;;;;;83.30;36.13;;;-6.00;99.90;;;;;;4989507;28;20042;-73
2022/12/13 06:28:23;;;;;;;166.37;82.03;;;-6.00;99.90;;;;;;5006493;28;20139;-73
2022/12/13 06:30:51;;;;;;;73.97;35.10;;;-6.00;99.90;;;;;;4989348;28;20136;-73
2022/12/13 06:33:20;;;;;;;97.10;45.30;;;-6.00;99.90;;;;;;4988553;28;20060;-73
2022/12/13 06:35:46;;;;;;;48.70;21.00;;;-6.10;99.90;;;;;;4986706;28;20597;-73
2022/12/13 06:38:12;;;;;;;172.27;81.37;;;-6.10;99.90;;;;;;4988228;28;20134;-73
2022/12/13 06:40:38;;;;;;;38.70;14.83;;;-6.10;99.90;;;;;;4989122;28;20045;-73
2022/12/13 06:43:04;;;;;;;180.50;84.53;;;-6.10;99.90;;;;;;4988743;28;20054;-73
2022/12/13 06:45:30;;;;;;;181.30;84.07;;;-6.10;99.90;;;;;;4988395;28;20048;-72
2022/12/13 06:47:57;;;;;;;58.60;19.20;;;-6.00;99.90;;;;;;4992328;28;20041;-73
2022/12/13 06:50:23;;;;;;;167.50;79.93;;;-6.00;99.90;;;;;;5004821;28;20046;-73
2022/12/13 06:52:49;;;;;;;168.63;81.03;;;-6.00;99.90;;;;;;4985092;28;20049;-73
2022/12/13 06:55:15;;;;;;;31.30;14.80;;;-6.00;99.90;;;;;;5002142;28;20034;-73
2022/12/13 06:57:40;;;;;;;137.03;68.47;;;-6.00;99.90;;;;;;4988777;28;20104;-73
2022/12/13 07:00:08;;;;;;;36.90;17.13;;;-6.10;99.90;;;;;;5006249;28;20204;-74
2022/12/13 07:02:34;;;;;;;30.88;18.63;;;-6.10;99.90;;;;;;5004900;28;20050;-73
2022/12/13 07:05:00;;;;;;;169.27;77.63;;;-6.10;99.90;;;;;;4989180;28;20518;-74
2022/12/13 07:07:26;;;;;;;169.40;80.93;;;-6.10;99.90;;;;;;4985096;28;20061;-73
2022/12/13 07:09:52;;;;;;;181.03;85.97;;;-6.00;99.90;;;;;;5006031;28;20729;-73
2022/12/13 07:12:19;;;;;;;43.70;18.37;;;-6.00;99.90;;;;;;4988545;28;20045;-73
2022/12/13 07:14:45;;;;;;;56.07;20.87;;;-6.00;99.90;;;;;;5006610;28;20172;-73
2022/12/13 07:17:11;;;;;;;168.30;81.93;;;-6.00;99.90;;;;;;4987307;28;20120;-73
2022/12/13 07:19:36;;;;;;;53.93;24.13;;;-5.90;99.90;;;;;;4987492;28;20089;-73
2022/12/13 07:22:04;;;;;;;174.97;84.23;;;-5.90;99.90;;;;;;4988797;28;20449;-73
2022/12/13 07:24:30;;;;;;;51.70;19.83;;;-5.90;99.90;;;;;;5003016;28;20060;-73
2022/12/13 07:26:56;;;;;;;166.20;81.50;;;-5.90;99.90;;;;;;4987733;28;20042;-74
2022/12/13 07:29:21;;;;;;;161.93;79.87;;;-5.90;99.90;;;;;;5004269;28;20132;-73
2022/12/13 07:31:47;;;;;;;175.37;84.20;;;-5.90;99.90;;;;;;4988832;28;20060;-73
2022/12/13 07:34:12;;;;;;;59.07;23.77;;;-5.80;99.90;;;;;;5006179;28;20041;-73
2022/12/13 07:36:38;;;;;;;171.60;85.07;;;-5.80;99.90;;;;;;4988487;28;20474;-73
2022/12/13 07:39:04;;;;;;;41.77;18.83;;;-5.80;99.90;;;;;;4987366;28;20082;-72
2022/12/13 07:41:29;;;;;;;172.93;85.50;;;-5.80;99.90;;;;;;4987864;28;20049;-73
2022/12/13 07:43:55;;;;;;;167.10;84.57;;;-5.80;99.90;;;;;;4971767;28;20050;-73
2022/12/13 07:46:21;;;;;;;109.03;56.07;;;-5.80;99.90;;;;;;4992099;28;20160;-73
2022/12/13 07:48:47;;;;;;;37.93;22.80;;;-5.70;99.90;;;;;;4992102;28;20037;-73
2022/12/13 07:51:13;;;;;;;203.43;98.47;;;-5.70;99.90;;;;;;5006961;28;20400;-73
2022/12/13 07:53:40;;;;;;;45.87;16.83;;;-5.70;99.90;;;;;;5009519;28;20061;-73
2022/12/13 07:56:10;;;;;;;213.30;95.90;;;-5.70;99.90;;;;;;4990965;28;20205;-73
2022/12/13 07:58:36;;;;;;;54.33;19.47;;;-5.70;99.90;;;;;;5007485;28;20513;-73
2022/12/13 08:01:07;;;;;;;211.70;96.37;;;-5.70;99.90;;;;;;5005531;28;20052;-72
2022/12/13 08:03:33;;;;;;;181.73;91.70;;;-5.70;99.90;;;;;;5008503;28;20088;-73
2022/12/13 08:06:00;;;;;;;205.07;96.60;;;-5.70;99.90;;;;;;4991698;28;20111;-72
2022/12/13 08:08:26;;;;;;;50.63;21.90;;;-5.60;99.90;;;;;;5008053;28;20622;-72
2022/12/13 08:10:51;;;;;;;76.40;23.07;;;-5.60;99.90;;;;;;4991298;28;20092;-72
2022/12/13 08:13:17;;;;;;;49.37;23.73;;;-5.60;99.90;;;;;;4990951;28;20044;-72
2022/12/13 08:15:42;;;;;;;74.07;24.17;;;-5.50;99.90;;;;;;4988671;28;20058;-73
2022/12/13 08:18:08;;;;;;;88.83;25.60;;;-5.50;99.90;;;;;;4991120;28;20042;-73
2022/12/13 08:20:34;;;;;;;77.43;23.60;;;-5.50;99.90;;;;;;5006836;28;20045;-72
2022/12/13 08:22:59;;;;;;;225.97;108.87;;;-5.40;99.90;;;;;;4989282;28;20046;-73
2022/12/13 08:25:25;;;;;;;225.27;110.67;;;-5.40;99.90;;;;;;4997760;28;20478;-73
2022/12/13 08:27:51;;;;;;;231.17;110.53;;;-5.40;99.90;;;;;;4989798;28;20053;-72
2022/12/13 08:30:17;;;;;;;79.33;25.43;;;-5.50;99.90;;;;;;5004842;28;20380;-73
2022/12/13 08:32:43;;;;;;;227.47;108.10;;;-5.50;99.90;;;;;;4987793;28;20054;-72
2022/12/13 08:35:09;;;;;;;65.17;28.20;;;-5.50;99.90;;;;;;4989862;28;20045;-73
2022/12/13 08:37:34;;;;;;;67.83;20.33;;;-5.50;99.90;;;;;;5006973;28;20422;-72
2022/12/13 08:40:00;;;;;;;73.63;26.60;;;-5.40;99.90;;;;;;4991190;28;20121;-72
2022/12/13 08:42:26;;;;;;;239.23;111.93;;;-5.40;99.90;;;;;;5007638;28;20041;-73
2022/12/13 08:44:52;;;;;;;232.80;107.97;;;-5.30;99.90;;;;;;5007498;28;20487;-74
2022/12/13 08:47:27;;;;;;;223.87;106.67;;;-5.30;99.90;;;;;;4987854;28;20052;-73
2022/12/13 08:49:54;;;;;;;238.37;115.30;;;-5.30;99.90;;;;;;5008252;28;20148;-73
2022/12/13 08:52:21;;;;;;;228.60;111.57;;;-5.30;99.90;;;;;;4999353;28;20133;-73
2022/12/13 08:54:47;;;;;;;240.90;114.67;;;-5.20;99.90;;;;;;4989655;28;20063;-73
2022/12/13 08:57:13;;;;;;;248.73;124.03;;;-5.20;99.90;;;;;;4985184;28;20045;-73
2022/12/13 08:59:38;;;;;;;249.20;128.03;;;-5.10;99.90;;;;;;4990199;28;20049;-73
2022/12/13 09:02:04;;;;;;;119.93;54.73;;;-5.00;99.90;;;;;;4991289;28;20045;-73
2022/12/13 09:04:30;;;;;;;248.83;116.43;;;-4.90;99.90;;;;;;4989466;28;20053;-73
2022/12/13 09:06:55;;;;;;;54.57;18.60;;;-4.90;99.90;;;;;;4990156;28;20117;-73
2022/12/13 09:09:21;;;;;;;247.50;112.13;;;-4.80;99.90;;;;;;4988769;28;20766;-73
2022/12/13 09:11:46;;;;;;;233.10;111.03;;;-4.80;99.90;;;;;;4991184;28;20042;-73
2022/12/13 09:14:12;;;;;;;33.40;18.43;;;-4.80;99.90;;;;;;4990554;28;20045;-73
2022/12/13 09:16:38;;;;;;;225.07;105.53;;;-4.70;99.90;;;;;;4988946;28;20849;-74
2022/12/13 09:19:04;;;;;;;237.37;110.17;;;-4.70;99.90;;;;;;4989660;28;20038;-74
2022/12/13 09:21:30;;;;;;;226.73;109.07;;;-4.60;99.90;;;;;;5004048;28;20056;-74
2022/12/13 09:23:55;;;;;;;59.43;20.80;;;-4.50;99.90;;;;;;4989387;28;20049;-74
2022/12/13 09:26:21;;;;;;;49.60;18.27;;;-4.50;99.90;;;;;;4990632;28;20057;-74
2022/12/13 09:28:47;;;;;;;230.50;110.67;;;-4.50;99.90;;;;;;4988559;28;20046;-74
2022/12/13 09:31:15;;;;;;;229.67;109.30;;;-4.40;99.90;;;;;;4989927;28;20046;-75
2022/12/13 09:33:41;;;;;;;228.77;108.10;;;-4.30;99.90;;;;;;4988768;28;20052;-74
2022/12/13 09:36:10;;;;;;;201.97;101.93;;;-4.30;99.90;;;;;;4990068;28;20080;-74
2022/12/13 09:38:36;;;;;;;236.07;108.23;;;-4.20;99.90;;;;;;4989958;28;20045;-74
2022/12/13 09:41:29;;;;;;;63.63;20.37;;;-4.10;99.90;;;;;;4990315;28;20030;-73
2022/12/13 09:44:29;;;;;;;214.13;102.68;;;-4.00;99.90;;;;;;4987338;28;20050;-75
2022/12/13 09:46:57;;;;;;;227.68;107.50;;;-3.90;99.90;;;;;;4996268;28;20533;-74
2022/12/13 09:49:36;;;;;;;218.05;111.18;;;-3.80;99.90;;;;;;4986168;28;20443;-75
2022/12/13 09:52:05;;;;;;;212.77;107.38;;;-3.70;99.90;;;;;;4987465;28;20538;-75
2022/12/13 09:54:32;;;;;;;218.25;107.22;;;-3.60;99.90;;;;;;4992276;28;20073;-76
2022/12/13 09:56:58;;;;;;;213.05;107.15;;;-3.50;99.90;;;;;;4982573;28;20491;-75
2022/12/13 09:59:33;;;;;;;212.43;103.75;;;-3.40;99.90;;;;;;4989041;28;20133;-75
2022/12/13 10:02:21;;;;;;;62.90;32.33;;;-3.30;99.90;;;;;;4986975;28;20452;-75
2022/12/13 10:04:46;;;;;;;62.88;30.65;;;-3.20;99.90;;;;;;4989024;28;20050;-75
2022/12/13 10:07:18;;;;;;;211.35;102.22;;;-3.10;99.90;;;;;;4985724;28;20064;-76
2022/12/13 10:09:44;;;;;;;150.50;75.80;;;-3.00;99.90;;;;;;4983568;28;20108;-76
2022/12/13 10:12:14;;;;;;;194.88;97.57;;;-2.80;99.90;;;;;;4987119;28;20052;-76
2022/12/13 10:14:43;;;;;;;191.75;98.72;;;-2.80;99.90;;;;;;4985666;28;20046;-76
2022/12/13 10:17:15;;;;;;;202.30;102.07;;;-2.60;99.90;;;;;;4985649;28;20529;-75
2022/12/13 10:19:46;;;;;;;188.65;96.50;;;-2.50;99.90;;;;;;4983736;28;20192;-76
2022/12/13 10:22:18;;;;;;;125.50;58.33;;;-2.50;99.90;;;;;;4998955;28;20050;-76
2022/12/13 10:25:04;;;;;;;175.55;93.00;;;-2.30;99.90;;;;;;4988254;28;20085;-76
2022/12/13 10:27:45;;;;;;;196.13;96.72;;;-2.30;99.90;;;;;;4988614;28;20050;-76
2022/12/13 10:30:18;;;;;;;186.57;95.85;;;-2.20;99.90;;;;;;4984790;28;20088;-75
2022/12/13 10:33:03;;;;;;;176.00;93.63;;;-2.00;99.90;;;;;;5000010;28;20140;-75
2022/12/13 10:35:34;;;;;;;180.18;93.13;;;-1.90;99.90;;;;;;4987662;28;20080;-73
2022/12/13 10:38:21;;;;;;;184.10;94.43;;;-1.80;99.90;;;;;;4988047;28;20054;-75
2022/12/13 10:40:47;;;;;;;167.88;95.03;;;-1.70;99.90;;;;;;4987053;28;20512;-76
2022/12/13 10:43:16;;;;;;;179.73;93.72;;;-1.70;99.90;;;;;;4989495;28;20719;-74
2022/12/13 10:46:02;;;;;;;191.55;91.38;;;-1.50;99.90;;;;;;4989044;28;20050;-73
2022/12/13 10:48:27;;;;;;;172.52;91.70;;;-1.40;99.90;;;;;;5003249;28;20060;-74
2022/12/13 10:51:15;;;;;;;172.80;94.95;;;-1.30;99.90;;;;;;4987474;28;20049;-74
2022/12/13 10:53:46;;;;;;;166.65;92.93;;;-1.20;99.90;;;;;;4984262;28;20090;-74
2022/12/13 10:56:12;;;;;;;163.82;90.45;;;-1.10;99.90;;;;;;4991856;28;20045;-74
2022/12/13 10:58:43;;;;;;;155.80;85.72;;;-1.00;99.90;;;;;;4984388;28;20121;-74
2022/12/13 11:01:25;;;;;;;146.82;84.97;;;-0.90;99.90;;;;;;5002986;28;20057;-75
2022/12/13 11:04:02;;;;;;;149.82;78.57;;;-0.80;99.90;;;;;;5000853;28;20049;-74
2022/12/13 11:06:43;;;;;;;143.13;80.95;;;-0.80;99.90;;;;;;5003702;28;20156;-74
2022/12/13 11:09:14;;;;;;;148.70;81.05;;;-0.70;99.90;;;;;;4988251;28;20062;-73
2022/12/13 11:11:40;;;;;;;137.95;79.45;;;-0.60;99.90;;;;;;4988199;28;20121;-75
2022/12/13 11:14:17;;;;;;;140.68;80.93;;;-0.50;99.90;;;;;;4987731;28;20049;-74
2022/12/13 11:16:53;;;;;;;136.68;77.18;;;-0.30;99.90;;;;;;5002543;28;20058;-76
2022/12/13 11:19:23;;;;;;;143.93;77.65;;;-0.30;99.90;;;;;;4985504;28;20129;-75
2022/12/13 11:21:51;;;;;;;141.65;79.00;;;-0.30;99.90;;;;;;4989822;28;20054;-76
2022/12/13 11:24:31;;;;;;;134.02;78.18;;;-0.20;99.90;;;;;;4992579;28;20046;-75
2022/12/13 11:27:20;;;;;;;137.20;74.00;;;-0.10;99.90;;;;;;4992540;28;20890;-77
2022/12/13 11:30:10;;;;;;;133.80;73.40;;;-0.20;99.90;;;;;;4968636;28;20053;-79
2022/12/13 11:32:51;;;;;;;132.95;74.68;;;-0.10;99.90;;;;;;4992252;28;20115;-80
2022/12/13 11:35:23;;;;;;;33.00;16.70;;;-0.10;99.90;;;;;;4991354;28;20679;-78
2022/12/13 11:38:23;;;;;;;128.65;74.55;;;-0.10;99.90;;;;;;4993678;28;20050;-79
2022/12/13 11:40:55;;;;;;;50.10;19.42;;;0.00;99.90;;;;;;5007005;28;20049;-81
2022/12/13 11:43:35;;;;;;;125.13;70.53;;;0.10;99.90;;;;;;4989883;28;20057;-80
2022/12/13 11:46:10;;;;;;;132.15;78.68;;;0.10;99.90;;;;;;4992397;28;20531;-81
2022/12/13 11:48:48;;;;;;;134.52;74.07;;;0.20;99.90;;;;;;4985816;28;20042;-79
2022/12/13 11:51:21;;;;;;;127.13;73.10;;;0.20;99.90;;;;;;4988162;28;20056;-78
2022/12/13 11:54:09;;;;;;;126.10;75.15;;;0.20;99.90;;;;;;5004852;28;20545;-79
2022/12/13 11:56:41;;;;;;;;;;;0.30;99.90;;;;;;4992266;28;20045;-79
2022/12/13 11:59:46;;;;;;;126.43;70.82;;;0.30;99.90;;;;;;4987467;28;19940;-79
2022/12/13 12:02:26;;;;;;;64.32;30.75;;;0.40;99.90;;;;;;4990571;28;20046;-79
2022/12/13 12:04:54;;;;;;;114.93;69.95;;;0.30;99.90;;;;;;5008404;28;20065;-79
2022/12/13 12:07:44;;;;;;;121.90;73.13;;;0.40;99.90;;;;;;4991585;28;20053;-78
2022/12/13 12:10:12;;;;;;;129.20;73.00;;;0.40;99.90;;;;;;4991129;28;20045;-79
2022/12/13 12:12:46;;;;;;;114.65;69.05;;;0.50;99.90;;;;;;4992205;28;20053;-78
2022/12/13 12:15:15;;;;;;;118.88;72.07;;;0.50;99.90;;;;;;4991721;28;20041;-78
2022/12/13 12:17:41;;;;;;;115.60;70.68;;;0.50;99.90;;;;;;4990841;28;20038;-79
2022/12/13 12:20:18;;;;;;;114.93;72.47;;;0.60;99.90;;;;;;4992400;28;20037;-79
2022/12/13 12:23:05;;;;;;;124.35;73.90;;;0.70;99.90;;;;;;4991219;28;20058;-81
2022/12/13 12:25:46;;;;;;;121.20;71.90;;;0.70;99.90;;;;;;4989691;28;20050;-80
2022/12/13 12:28:17;;;;;;;57.75;32.25;;;0.80;99.90;;;;;;5005866;28;20100;-80
2022/12/13 12:30:55;;;;;;;123.35;72.20;;;0.80;99.90;;;;;;4989143;28;20058;-80
2022/12/13 12:33:52;;;;;;;125.60;75.20;;;0.90;99.90;;;;;;4992185;28;20069;-80
2022/12/13 12:36:31;;;;;;;122.93;73.50;;;1.00;99.90;;;;;;4990103;28;20054;-81
2022/12/13 12:39:05;;;;;;;125.28;74.47;;;1.00;99.90;;;;;;4991638;28;20042;-81